ADDS TAF Data INFO
IDs: Format: Raw Decoded Include METARs

Data at: 1538 UTC 18 Jan 2018

KINK 181453Z AUTO 00000KT 10SM CLR M04/M15 A3034 RMK AO2 SLP287 T10441150 53003 $

KINK 181120Z 1812/1912 14006KT P6SM FEW250